createdAt,value
2023-03-13T00:00:26.751Z,100124.69
2023-03-13T00:02:58.462Z,100124.66
2023-03-13T00:05:25.091Z,100127.97
2023-03-13T00:07:51.662Z,100141.13
2023-03-13T00:10:18.359Z,100139.31
2023-03-13T00:12:44.915Z,100135.47
2023-03-13T00:15:11.793Z,100126.28
2023-03-13T00:18:00.097Z,100119.34
2023-03-13T00:20:38.991Z,100122.16
2023-03-13T00:25:40.957Z,100125.59
2023-03-13T00:38:49.446Z,100108.28
2023-03-13T00:41:22.091Z,100121.84
2023-03-13T00:43:49.490Z,100114.97
2023-03-13T00:46:18.342Z,100112.91
2023-03-13T00:48:51.334Z,100102.13
2023-03-13T00:51:19.373Z,100100.53
2023-03-13T00:54:07.751Z,100107.19
2023-03-13T00:56:34.433Z,100110.81
2023-03-13T00:59:01.716Z,100100.84
2023-03-13T01:01:31.125Z,100107.06
2023-03-13T01:04:00.310Z,100093.75
2023-03-13T01:06:29.847Z,100088.06
2023-03-13T01:09:00.156Z,100081.69
2023-03-13T01:11:29.524Z,100078.53
2023-03-13T01:14:04.589Z,100075.91
2023-03-13T01:16:33.903Z,100067.84
2023-03-13T01:19:03.563Z,100065.88
2023-03-13T01:21:30.593Z,100073.28
2023-03-13T01:23:57.808Z,100072.13
2023-03-13T01:26:33.669Z,100065.03
2023-03-13T01:29:25.428Z,100073.91
2023-03-13T01:32:01.478Z,100066.75
2023-03-13T01:34:28.084Z,100059.06
2023-03-13T01:36:54.659Z,100057.34
2023-03-13T01:39:21.319Z,100055.72
2023-03-13T01:41:48.126Z,100054.50
2023-03-13T01:44:27.517Z,100054.37
2023-03-13T01:46:54.170Z,100050.69
2023-03-13T01:49:30.497Z,100051.00
2023-03-13T01:52:01.667Z,100046.69
2023-03-13T01:54:37.376Z,100051.44
2023-03-13T01:57:53.713Z,100053.63
2023-03-13T02:00:42.476Z,100053.47
2023-03-13T02:03:12.557Z,100047.78
2023-03-13T02:05:41.213Z,100047.16
2023-03-13T02:08:13.735Z,100045.69
2023-03-13T02:10:48.946Z,100035.25
2023-03-13T02:13:17.477Z,100038.34
2023-03-13T02:15:45.238Z,100038.34
2023-03-13T02:18:12.154Z,100047.97
2023-03-13T02:20:40.000Z,100046.69
2023-03-13T02:23:22.202Z,100033.53
2023-03-13T02:25:54.611Z,100035.91
2023-03-13T02:28:39.960Z,100034.22
2023-03-13T02:31:19.869Z,100040.00
2023-03-13T02:33:54.947Z,100034.78
2023-03-13T02:36:33.968Z,100038.38
2023-03-13T02:39:04.877Z,100040.69
2023-03-13T02:41:33.856Z,100033.69
2023-03-13T02:44:00.436Z,100035.62
2023-03-13T02:46:27.122Z,100049.06
2023-03-13T02:48:57.106Z,100050.37
2023-03-13T02:51:31.618Z,100042.28
2023-03-13T02:54:06.777Z,100040.97
2023-03-13T02:56:43.955Z,100028.28
2023-03-13T02:59:23.510Z,100032.81
2023-03-13T03:01:52.915Z,100036.00
2023-03-13T03:04:24.288Z,100048.22
2023-03-13T03:06:51.942Z,100052.62
2023-03-13T03:09:19.824Z,100056.47
2023-03-13T03:11:46.875Z,100070.28
2023-03-13T03:14:33.683Z,100065.00
2023-03-13T03:17:00.241Z,100054.97
2023-03-13T03:19:26.755Z,100053.28
2023-03-13T03:21:53.275Z,100052.38
2023-03-13T03:24:20.019Z,100047.31
2023-03-13T03:26:47.088Z,100060.84
2023-03-13T03:29:13.772Z,100052.84
2023-03-13T03:32:02.216Z,100047.78
2023-03-13T03:34:41.040Z,100044.91
2023-03-13T03:37:07.659Z,100051.94
2023-03-13T03:39:34.307Z,100042.50
2023-03-13T03:42:00.871Z,100050.28
2023-03-13T03:44:42.855Z,100045.03
2023-03-13T03:47:09.462Z,100046.38
2023-03-13T03:49:36.075Z,100044.25
2023-03-13T03:52:02.773Z,100049.19
2023-03-13T03:54:29.434Z,100053.34
2023-03-13T03:56:56.016Z,100054.16
2023-03-13T04:02:18.108Z,100056.56
2023-03-13T04:04:44.682Z,100057.22
2023-03-13T04:07:11.321Z,100068.47
2023-03-13T04:09:37.874Z,100068.13
2023-03-13T04:12:04.608Z,100080.13
2023-03-13T04:14:36.924Z,100077.87
2023-03-13T04:17:15.752Z,100076.16
2023-03-13T04:19:45.378Z,100073.12
2023-03-13T04:22:12.028Z,100066.56
2023-03-13T04:24:38.535Z,100073.25
2023-03-13T04:27:06.603Z,100076.25
2023-03-13T04:29:39.631Z,100086.06
2023-03-13T04:32:06.143Z,100080.44
2023-03-13T04:34:32.875Z,100083.16
2023-03-13T04:36:59.607Z,100084.28
2023-03-13T04:39:26.220Z,100086.19
2023-03-13T04:41:53.938Z,100090.28
2023-03-13T04:47:28.834Z,100079.56
2023-03-13T04:49:55.410Z,100088.63
2023-03-13T04:52:22.254Z,100085.50
2023-03-13T04:54:51.030Z,100082.62
2023-03-13T04:57:17.761Z,100082.03
2023-03-13T04:59:53.228Z,100082.78
2023-03-13T05:02:44.856Z,100087.50
2023-03-13T05:05:24.876Z,100095.09
2023-03-13T05:07:51.486Z,100111.63
2023-03-13T05:10:18.160Z,100113.03
2023-03-13T05:12:44.733Z,100114.72
2023-03-13T05:15:20.233Z,100100.47
2023-03-13T05:17:54.544Z,100111.78
2023-03-13T05:20:21.445Z,100116.81
2023-03-13T05:22:47.996Z,100115.63
2023-03-13T05:25:14.931Z,100110.16
2023-03-13T05:27:41.582Z,100120.31
2023-03-13T05:32:43.433Z,100120.41
2023-03-13T05:35:10.065Z,100125.37
2023-03-13T05:37:37.078Z,100125.19
2023-03-13T05:40:05.325Z,100130.00
2023-03-13T05:42:31.906Z,100135.72
2023-03-13T05:48:11.307Z,100134.09
2023-03-13T05:50:44.996Z,100139.09
2023-03-13T05:53:11.507Z,100129.88
2023-03-13T05:55:38.045Z,100133.00
2023-03-13T05:58:04.816Z,100130.22
2023-03-13T06:00:46.819Z,100132.06
2023-03-13T06:03:14.469Z,100128.31
2023-03-13T06:05:41.250Z,100137.06
2023-03-13T06:08:07.851Z,100135.06
2023-03-13T06:10:34.520Z,100135.16
2023-03-13T06:13:13.712Z,100130.94
2023-03-13T06:15:56.286Z,100125.81
2023-03-13T06:18:28.170Z,100125.44
2023-03-13T06:20:59.830Z,100123.72
2023-03-13T06:23:26.726Z,100118.13
2023-03-13T06:26:18.246Z,100123.66
2023-03-13T06:29:10.803Z,100116.28
2023-03-13T06:31:37.512Z,100122.44
2023-03-13T06:34:04.303Z,100119.09
2023-03-13T06:36:30.884Z,100127.12
2023-03-13T06:38:57.510Z,100125.13
2023-03-13T06:41:24.554Z,100129.88
2023-03-13T06:43:51.124Z,100123.47
2023-03-13T06:46:20.946Z,100133.28
2023-03-13T06:48:47.826Z,100134.94
2023-03-13T06:51:16.971Z,100123.19
2023-03-13T06:53:46.498Z,100130.72
2023-03-13T06:56:16.122Z,100130.22
2023-03-13T06:58:42.696Z,100125.13
2023-03-13T07:01:14.605Z,100129.19
2023-03-13T07:03:41.684Z,100124.22
2023-03-13T07:06:09.902Z,100122.09
2023-03-13T07:08:37.313Z,100120.59
2023-03-13T07:11:06.906Z,100128.72
2023-03-13T07:13:33.506Z,100112.47
2023-03-13T07:21:11.414Z,100121.00
2023-03-13T07:23:38.014Z,100114.50
2023-03-13T07:26:13.555Z,100123.38
2023-03-13T07:28:40.317Z,100119.16
2023-03-13T07:31:45.453Z,100113.41
2023-03-13T07:34:35.821Z,100112.06
2023-03-13T07:37:02.373Z,100113.91
2023-03-13T07:39:44.483Z,100109.69
2023-03-13T07:42:12.380Z,100105.81
2023-03-13T07:44:39.018Z,100110.53
2023-03-13T07:47:05.800Z,100102.41
2023-03-13T07:49:50.735Z,100114.59
2023-03-13T07:52:18.051Z,100104.81
2023-03-13T07:54:44.675Z,100103.22
2023-03-13T07:57:11.221Z,100101.53
2023-03-13T08:00:27.532Z,100089.94
2023-03-13T08:03:15.987Z,100092.00
2023-03-13T08:05:42.916Z,100083.12
2023-03-13T08:08:10.131Z,100088.00
2023-03-13T08:10:36.961Z,100080.72
2023-03-13T08:13:03.828Z,100080.31
2023-03-13T08:15:30.861Z,100075.03
2023-03-13T08:17:57.560Z,100071.06
2023-03-13T08:20:24.169Z,100068.47
2023-03-13T08:22:50.769Z,100065.50
2023-03-13T08:25:24.202Z,100059.22
2023-03-13T08:27:56.032Z,100059.69
2023-03-13T08:30:41.241Z,100048.53
2023-03-13T08:33:23.448Z,100055.34
2023-03-13T08:35:50.142Z,100038.47
2023-03-13T08:38:16.705Z,100041.69
2023-03-13T08:40:43.321Z,100039.53
2023-03-13T08:43:09.896Z,100043.34
2023-03-13T08:45:36.482Z,100040.78
2023-03-13T08:50:38.296Z,100037.25
2023-03-13T08:53:04.815Z,100036.53
2023-03-13T08:55:31.354Z,100031.69
2023-03-13T08:57:57.897Z,100029.66
2023-03-13T09:00:24.720Z,100023.50
2023-03-13T09:03:09.790Z,100025.41
2023-03-13T09:06:23.931Z,100016.09
2023-03-13T09:08:51.597Z,100013.81
2023-03-13T09:11:20.685Z,100003.44
2023-03-13T09:13:49.961Z,100009.97
2023-03-13T09:16:22.252Z,100006.56
2023-03-13T09:18:50.117Z,100007.38
2023-03-13T09:21:19.900Z,100005.34
2023-03-13T09:23:47.698Z,100002.87
2023-03-13T09:26:22.667Z,100000.94
2023-03-13T09:28:51.062Z,99998.41
2023-03-13T09:31:20.742Z,99993.81
2023-03-13T09:34:08.931Z,99986.84
2023-03-13T09:39:28.540Z,99984.75
2023-03-13T09:42:23.107Z,99987.00
2023-03-13T09:45:06.044Z,99979.94
2023-03-13T09:47:44.381Z,99972.63
2023-03-13T09:50:23.480Z,99973.19
2023-03-13T09:55:30.700Z,99973.25
2023-03-13T09:58:09.056Z,99973.16
2023-03-13T10:00:39.421Z,99974.09
2023-03-13T10:03:23.033Z,99966.56
2023-03-13T10:05:55.869Z,99959.28
2023-03-13T10:08:50.968Z,99955.16
2023-03-13T10:11:46.181Z,99952.16
2023-03-13T10:14:21.358Z,99941.56
2023-03-13T10:17:07.240Z,99946.00
2023-03-13T10:19:42.208Z,99934.63
2023-03-13T10:22:19.678Z,99935.69
2023-03-13T10:25:11.962Z,99934.44
2023-03-13T10:27:50.723Z,99941.81
2023-03-13T10:30:29.699Z,99936.31
2023-03-13T10:33:26.678Z,99936.00
2023-03-13T10:36:07.765Z,99926.63
2023-03-13T10:38:46.121Z,99925.31
2023-03-13T10:41:25.271Z,99917.87
2023-03-13T10:44:16.466Z,99926.00
2023-03-13T10:46:52.528Z,99919.00
2023-03-13T10:49:21.336Z,99920.19
2023-03-13T10:51:50.686Z,99908.94
2023-03-13T10:54:39.643Z,99911.50
2023-03-13T10:57:18.514Z,99907.44
2023-03-13T10:59:50.722Z,99895.31
2023-03-13T11:02:37.327Z,99892.38
2023-03-13T11:05:26.117Z,99904.06
2023-03-13T11:07:53.605Z,99902.00
2023-03-13T11:10:22.923Z,99898.66
2023-03-13T11:12:58.571Z,99883.69
2023-03-13T11:15:57.418Z,99878.94
2023-03-13T11:18:40.738Z,99881.19
2023-03-13T11:21:18.417Z,99874.72
2023-03-13T11:34:43.809Z,99853.59
2023-03-13T11:37:14.636Z,99850.13
2023-03-13T11:40:02.634Z,99847.97
2023-03-13T11:42:45.097Z,99852.06
2023-03-13T11:45:26.141Z,99834.91
2023-03-13T11:48:22.255Z,99832.94
2023-03-13T11:51:01.176Z,99821.44
2023-03-13T11:53:49.826Z,99820.84
2023-03-13T11:56:21.863Z,99810.22
2023-03-13T11:58:51.507Z,99820.56
2023-03-13T12:01:20.830Z,99808.22
2023-03-13T12:03:54.937Z,99805.31
2023-03-13T12:06:43.609Z,99796.88
2023-03-13T12:09:10.168Z,99783.84
2023-03-13T12:12:29.501Z,99781.44
2023-03-13T12:15:19.341Z,99785.41
2023-03-13T12:17:59.673Z,99782.00
2023-03-13T12:20:34.699Z,99766.09
2023-03-13T12:23:18.923Z,99761.38
2023-03-13T12:25:58.791Z,99746.91
2023-03-13T12:28:47.576Z,99750.22
2023-03-13T12:31:32.104Z,99755.84
2023-03-13T12:34:17.218Z,99758.09
2023-03-13T12:36:49.942Z,99752.06
2023-03-13T12:39:35.111Z,99741.47
2023-03-13T12:42:34.773Z,99746.56
2023-03-13T12:45:02.546Z,99737.25
2023-03-13T12:47:34.755Z,99742.00
2023-03-13T12:50:32.471Z,99733.34
2023-03-13T12:53:21.667Z,99726.47
2023-03-13T12:56:26.606Z,99723.00
2023-03-13T12:59:18.216Z,99697.69
2023-03-13T13:01:54.310Z,99694.03
2023-03-13T13:04:25.895Z,99686.50
2023-03-13T13:06:56.122Z,99692.03
2023-03-13T13:09:30.733Z,99677.28
2023-03-13T13:12:25.680Z,99665.75
2023-03-13T13:14:52.252Z,99673.44
2023-03-13T13:18:06.868Z,99672.66
2023-03-13T13:20:38.648Z,99673.41
2023-03-13T13:23:23.196Z,99686.03
2023-03-13T13:25:50.807Z,99690.13
2023-03-13T13:28:19.214Z,99689.44
2023-03-13T13:30:45.959Z,99689.81
2023-03-13T13:33:19.079Z,99670.53
2023-03-13T13:35:47.317Z,99665.63
2023-03-13T13:38:19.626Z,99665.56
2023-03-13T13:41:01.054Z,99657.47
2023-03-13T13:43:32.641Z,99648.25
2023-03-13T13:46:34.075Z,99661.72
2023-03-13T13:49:20.472Z,99652.94
2023-03-13T13:52:09.063Z,99639.47
2023-03-13T13:54:45.484Z,99645.59
2023-03-13T13:57:23.678Z,99622.44
2023-03-13T14:00:11.634Z,99627.69
2023-03-13T14:02:49.124Z,99609.72
2023-03-13T14:05:33.534Z,99606.16
2023-03-13T14:08:22.099Z,99612.78
2023-03-13T14:11:04.890Z,99605.06
2023-03-13T14:13:31.643Z,99621.47
2023-03-13T14:16:24.530Z,99613.44
2023-03-13T14:19:00.346Z,99617.75
2023-03-13T14:21:27.336Z,99602.72
2023-03-13T14:23:54.265Z,99622.50
2023-03-13T14:26:26.427Z,99617.56
2023-03-13T14:29:07.402Z,99605.88
2023-03-13T14:31:36.859Z,99603.41
2023-03-13T14:34:06.539Z,99614.25
2023-03-13T14:42:13.372Z,99606.69
2023-03-13T14:44:42.936Z,99609.22
2023-03-13T14:47:21.465Z,99612.25
2023-03-13T14:50:28.322Z,99611.50
2023-03-13T14:56:42.362Z,99614.78
2023-03-13T14:59:23.966Z,99605.37
2023-03-13T15:02:22.961Z,99593.53
2023-03-13T15:05:01.366Z,99595.16
2023-03-13T15:07:38.153Z,99592.41
2023-03-13T15:10:24.548Z,99589.69
2023-03-13T15:12:51.726Z,99591.00
2023-03-13T15:15:18.930Z,99577.81
2023-03-13T15:17:45.628Z,99581.03
2023-03-13T15:20:14.097Z,99584.44
2023-03-13T15:22:43.520Z,99579.84
2023-03-13T15:25:27.340Z,99579.28
2023-03-13T15:28:39.086Z,99568.53
2023-03-13T15:31:05.896Z,99561.88
2023-03-13T15:33:32.523Z,99566.94
2023-03-13T15:35:59.214Z,99553.44
2023-03-13T15:38:27.608Z,99555.78
2023-03-13T15:40:54.561Z,99563.78
2023-03-13T15:43:22.313Z,99554.47
2023-03-13T15:45:53.583Z,99546.97
2023-03-13T15:48:28.491Z,99547.88
2023-03-13T15:50:58.666Z,99542.25
2023-03-13T15:53:30.683Z,99540.28
2023-03-13T15:55:59.948Z,99541.84
2023-03-13T15:58:28.778Z,99536.44
2023-03-13T16:00:56.799Z,99529.16
2023-03-13T16:03:26.411Z,99532.16
2023-03-13T16:05:54.087Z,99529.06
2023-03-13T16:08:35.138Z,99529.25
2023-03-13T16:11:02.780Z,99528.97
2023-03-13T16:16:30.139Z,99526.50
2023-03-13T16:18:58.593Z,99526.50
2023-03-13T16:21:31.010Z,99529.66
2023-03-13T16:23:57.727Z,99522.06
2023-03-13T16:26:27.133Z,99523.53
2023-03-13T16:28:55.112Z,99521.25
2023-03-13T16:31:46.653Z,99529.37
2023-03-13T16:34:31.851Z,99530.00
2023-03-13T16:37:27.687Z,99519.25
2023-03-13T16:39:54.251Z,99519.19
2023-03-13T16:42:25.929Z,99508.88
2023-03-13T16:44:57.372Z,99504.09
2023-03-13T16:47:29.134Z,99528.34
2023-03-13T16:49:59.372Z,99533.22
2023-03-13T16:52:25.998Z,99528.16
2023-03-13T16:54:52.582Z,99532.81
2023-03-13T16:57:24.013Z,99532.12
2023-03-13T17:00:17.194Z,99523.41
2023-03-13T17:02:44.868Z,99524.25
2023-03-13T17:05:15.687Z,99525.59
2023-03-13T17:07:44.590Z,99531.53
2023-03-13T17:10:32.596Z,99525.94
2023-03-13T17:13:00.382Z,99530.63
2023-03-13T17:15:28.713Z,99526.28
2023-03-13T17:20:51.182Z,99522.19
2023-03-13T17:23:17.791Z,99532.44
2023-03-13T17:25:47.175Z,99535.28
2023-03-13T17:28:14.527Z,99528.19
2023-03-13T17:30:41.131Z,99531.66
2023-03-13T17:37:22.543Z,99521.41
2023-03-13T17:39:51.394Z,99518.56
2023-03-13T17:42:18.705Z,99525.47
2023-03-13T17:44:45.294Z,99524.91
2023-03-13T17:47:15.137Z,99527.69
2023-03-13T17:49:42.815Z,99532.75
2023-03-13T17:52:15.257Z,99539.56
2023-03-13T17:54:56.432Z,99541.41
2023-03-13T17:57:23.180Z,99534.72
2023-03-13T17:59:49.777Z,99533.97
2023-03-13T18:02:17.456Z,99528.47
2023-03-13T18:04:45.058Z,99521.06
2023-03-13T18:07:22.549Z,99516.91
2023-03-13T18:09:49.104Z,99511.16
2023-03-13T18:12:16.103Z,99520.25
2023-03-13T18:14:43.121Z,99527.97
2023-03-13T18:17:21.354Z,99518.69
2023-03-13T18:19:49.920Z,99519.75
2023-03-13T18:22:40.285Z,99510.38
2023-03-13T18:25:07.360Z,99503.22
2023-03-13T18:27:33.981Z,99512.69
2023-03-13T18:30:00.860Z,99517.91
2023-03-13T18:32:27.613Z,99521.63
2023-03-13T18:34:54.168Z,99515.03
2023-03-13T18:40:11.387Z,99499.09
2023-03-13T18:42:37.942Z,99506.16
2023-03-13T18:45:05.201Z,99501.84
2023-03-13T18:47:31.774Z,99503.50
2023-03-13T18:49:58.349Z,99490.41
2023-03-13T18:52:24.896Z,99488.59
2023-03-13T18:54:56.951Z,99489.78
2023-03-13T18:57:24.215Z,99485.41
2023-03-13T18:59:50.850Z,99491.22
2023-03-13T19:02:18.711Z,99481.56
2023-03-13T19:04:47.836Z,99487.72
2023-03-13T19:07:19.591Z,99483.19
2023-03-13T19:09:47.201Z,99480.19
2023-03-13T19:15:09.910Z,99465.94
2023-03-13T19:17:36.941Z,99458.25
2023-03-13T19:20:04.380Z,99450.59
2023-03-13T19:22:31.009Z,99453.41
2023-03-13T19:24:57.751Z,99447.56
2023-03-13T19:27:24.429Z,99447.13
2023-03-13T19:30:49.953Z,99438.28
2023-03-13T19:33:16.617Z,99441.47
2023-03-13T19:35:43.257Z,99436.22
2023-03-13T19:38:12.399Z,99443.94
2023-03-13T19:40:38.957Z,99442.13
2023-03-13T19:43:05.574Z,99425.66
2023-03-13T19:45:32.210Z,99425.56
2023-03-13T19:47:58.800Z,99434.06
2023-03-13T19:50:29.849Z,99428.63
2023-03-13T19:52:56.597Z,99418.09
2023-03-13T19:55:23.183Z,99422.88
2023-03-13T19:58:12.823Z,99421.56
2023-03-13T20:00:51.690Z,99422.78
2023-03-13T20:03:24.053Z,99429.75
2023-03-13T20:05:51.396Z,99425.31
2023-03-13T20:08:17.938Z,99426.31
2023-03-13T20:10:44.598Z,99421.16
2023-03-13T20:13:11.122Z,99432.81
2023-03-13T20:15:37.781Z,99431.03
2023-03-13T20:18:04.680Z,99438.72
2023-03-13T20:20:31.434Z,99430.00
2023-03-13T20:22:57.968Z,99421.97
2023-03-13T20:25:25.315Z,99427.53
2023-03-13T20:27:51.919Z,99427.31
2023-03-13T20:30:18.849Z,99419.03
2023-03-13T20:32:57.069Z,99413.09
2023-03-13T20:35:28.086Z,99410.59
2023-03-13T20:37:58.547Z,99410.22
2023-03-13T20:40:25.712Z,99397.00
2023-03-13T20:42:52.298Z,99398.22
2023-03-13T20:45:18.881Z,99394.56
2023-03-13T20:47:45.480Z,99370.47
2023-03-13T20:50:12.016Z,99376.16
2023-03-13T20:52:38.586Z,99371.94
2023-03-13T20:55:05.541Z,99366.59
2023-03-13T20:57:32.115Z,99360.25
2023-03-13T20:59:58.655Z,99348.22
2023-03-13T21:02:25.182Z,99347.38
2023-03-13T21:04:56.959Z,99346.91
2023-03-13T21:07:29.422Z,99340.59
2023-03-13T21:10:09.116Z,99332.28
2023-03-13T21:12:38.826Z,99329.16
2023-03-13T21:15:07.573Z,99323.47
2023-03-13T21:17:35.065Z,99320.41
2023-03-13T21:20:01.852Z,99313.97
2023-03-13T21:22:31.394Z,99308.81
2023-03-13T21:24:57.934Z,99315.03
2023-03-13T21:27:24.502Z,99308.59
2023-03-13T21:29:51.300Z,99302.03
2023-03-13T21:32:19.474Z,99285.66
2023-03-13T21:34:46.353Z,99290.88
2023-03-13T21:40:26.228Z,99279.16
2023-03-13T21:42:56.485Z,99273.56
2023-03-13T21:45:23.047Z,99277.63
2023-03-13T21:47:49.637Z,99274.25
2023-03-13T21:50:16.276Z,99271.06
2023-03-13T21:52:42.925Z,99264.47
2023-03-13T21:55:23.238Z,99270.44
2023-03-13T21:58:03.200Z,99275.09
2023-03-13T22:00:32.075Z,99270.66
2023-03-13T22:02:59.872Z,99265.09
2023-03-13T22:05:26.530Z,99265.97
2023-03-13T22:08:08.922Z,99260.47
2023-03-13T22:10:37.761Z,99267.75
2023-03-13T22:13:05.478Z,99256.09
2023-03-13T22:15:32.332Z,99257.19
2023-03-13T22:17:59.111Z,99257.34
2023-03-13T22:20:25.686Z,99244.91
2023-03-13T22:22:52.276Z,99236.13
2023-03-13T22:25:19.224Z,99241.81
2023-03-13T22:27:45.780Z,99229.47
2023-03-13T22:30:12.780Z,99232.03
2023-03-13T22:32:39.404Z,99230.22
2023-03-13T22:35:06.696Z,99226.19
2023-03-13T22:37:34.706Z,99222.19
2023-03-13T22:40:02.766Z,99219.53
2023-03-13T22:42:29.322Z,99213.84
2023-03-13T22:44:55.960Z,99195.78
2023-03-13T22:47:23.435Z,99194.69
2023-03-13T22:49:50.574Z,99191.78
2023-03-13T22:52:17.233Z,99189.69
2023-03-13T22:54:46.469Z,99193.22
2023-03-13T22:57:13.427Z,99188.53
2023-03-13T22:59:39.988Z,99191.97
2023-03-13T23:02:06.586Z,99179.78
2023-03-13T23:04:33.118Z,99178.41
2023-03-13T23:06:59.660Z,99171.94
2023-03-13T23:09:26.239Z,99180.72
2023-03-13T23:11:52.820Z,99172.44
2023-03-13T23:14:19.363Z,99169.78
2023-03-13T23:16:45.995Z,99175.97
2023-03-13T23:19:12.557Z,99170.59
2023-03-13T23:21:44.315Z,99160.69
2023-03-13T23:24:17.339Z,99163.56
2023-03-13T23:26:44.056Z,99157.66
2023-03-13T23:29:10.623Z,99167.94
2023-03-13T23:31:37.138Z,99151.69
2023-03-13T23:34:03.685Z,99148.19
2023-03-13T23:36:30.247Z,99151.72
2023-03-13T23:38:58.298Z,99144.00
2023-03-13T23:41:25.218Z,99151.50
2023-03-13T23:43:51.865Z,99146.09
2023-03-13T23:46:27.938Z,99146.03
2023-03-13T23:48:56.368Z,99141.72
2023-03-13T23:51:43.126Z,99147.97
2023-03-13T23:54:34.681Z,99145.88
2023-03-13T23:57:01.357Z,99146.53
2023-03-13T23:59:27.984Z,99143.81
